createdAt,value
2023-04-11T00:02:02.323Z,10.43
2023-04-11T00:05:08.956Z,10.41
2023-04-11T00:08:11.856Z,10.38
2023-04-11T00:11:14.853Z,10.37
2023-04-11T00:14:17.721Z,10.32
2023-04-11T00:17:21.349Z,10.28
2023-04-11T00:20:24.185Z,10.24
2023-04-11T00:23:26.869Z,10.21
2023-04-11T00:26:36.557Z,10.15
2023-04-11T00:29:49.297Z,10.11
2023-04-11T00:32:52.017Z,10.09
2023-04-11T00:35:54.721Z,10.08
2023-04-11T00:38:58.647Z,10.05
2023-04-11T00:42:08.439Z,10.02
2023-04-11T00:45:11.725Z,9.99
2023-04-11T00:48:14.979Z,9.96
2023-04-11T00:51:19.443Z,9.94
2023-04-11T00:54:22.275Z,9.92
2023-04-11T00:57:26.177Z,9.92
2023-04-11T01:00:34.104Z,9.91
2023-04-11T01:03:39.278Z,9.88
2023-04-11T01:06:42.170Z,9.85
2023-04-11T01:09:46.174Z,9.83
2023-04-11T01:12:49.100Z,9.80
2023-04-11T01:15:51.825Z,9.76
2023-04-11T01:18:54.784Z,9.76
2023-04-11T01:21:59.158Z,9.78
2023-04-11T01:25:02.196Z,9.76
2023-04-11T01:28:06.521Z,9.75
2023-04-11T01:31:09.389Z,9.75
2023-04-11T01:34:14.706Z,9.76
2023-04-11T01:37:17.518Z,9.73
2023-04-11T01:40:21.430Z,9.70
2023-04-11T01:43:24.374Z,9.67
2023-04-11T01:46:27.102Z,9.67
2023-04-11T01:49:29.938Z,9.68
2023-04-11T01:52:32.589Z,9.69
2023-04-11T01:55:35.323Z,9.70
2023-04-11T01:58:37.982Z,9.70
2023-04-11T02:01:44.280Z,9.67
2023-04-11T02:04:47.075Z,9.66
2023-04-11T02:07:49.739Z,9.61
2023-04-11T02:10:52.382Z,9.58
2023-04-11T02:13:55.159Z,9.57
2023-04-11T02:16:57.878Z,9.58
2023-04-11T02:20:07.133Z,9.56
2023-04-11T02:23:09.955Z,9.52
2023-04-11T02:26:14.577Z,9.46
2023-04-11T02:29:17.216Z,9.40
2023-04-11T02:32:20.102Z,9.35
2023-04-11T02:35:22.898Z,9.30
2023-04-11T02:38:26.093Z,9.29
2023-04-11T02:41:28.718Z,9.30
2023-04-11T02:44:31.494Z,9.29
2023-04-11T02:47:34.173Z,9.26
2023-04-11T02:50:41.136Z,9.24
2023-04-11T02:53:43.960Z,9.21
2023-04-11T02:56:46.920Z,9.19
2023-04-11T02:59:49.834Z,9.18
2023-04-11T03:02:52.674Z,9.19
2023-04-11T03:05:57.093Z,9.18
2023-04-11T03:08:59.740Z,9.16
2023-04-11T03:12:02.434Z,9.14
2023-04-11T03:15:05.488Z,9.13
2023-04-11T03:18:08.171Z,9.16
2023-04-11T03:21:11.715Z,9.18
2023-04-11T03:24:14.382Z,9.23
2023-04-11T03:27:17.077Z,9.24
2023-04-11T03:30:20.192Z,9.24
2023-04-11T03:33:22.926Z,9.23
2023-04-11T03:36:27.194Z,9.19
2023-04-11T03:39:29.885Z,9.14
2023-04-11T03:42:32.511Z,9.10
2023-04-11T03:45:35.253Z,9.06
2023-04-11T03:48:38.083Z,9.07
2023-04-11T03:51:40.932Z,9.08
2023-04-11T03:54:44.885Z,9.09
2023-04-11T03:57:49.179Z,9.07
2023-04-11T04:00:51.825Z,9.03
2023-04-11T04:03:54.952Z,9.01
2023-04-11T04:06:59.871Z,8.98
2023-04-11T04:10:02.687Z,8.96
2023-04-11T04:13:05.505Z,8.96
2023-04-11T04:16:08.781Z,8.96
2023-04-11T04:19:11.468Z,8.94
2023-04-11T04:22:17.720Z,8.93
2023-04-11T04:25:20.615Z,8.94
2023-04-11T04:28:23.447Z,8.96
2023-04-11T04:31:30.072Z,8.95
2023-04-11T04:34:32.796Z,8.94
2023-04-11T04:37:39.580Z,8.91
2023-04-11T04:40:42.399Z,8.90
2023-04-11T04:43:45.057Z,8.92
2023-04-11T04:46:47.723Z,8.95
2023-04-11T04:49:56.107Z,8.96
2023-04-11T04:52:58.726Z,8.94
2023-04-11T04:56:01.959Z,8.92
2023-04-11T04:59:04.642Z,8.86
2023-04-11T05:02:08.257Z,8.81
2023-04-11T05:05:12.425Z,8.78
2023-04-11T05:08:17.527Z,8.80
2023-04-11T05:11:20.277Z,8.85
2023-04-11T05:14:22.971Z,8.88
2023-04-11T05:17:26.398Z,8.87
2023-04-11T05:20:29.807Z,8.86
2023-04-11T05:23:32.534Z,8.85
2023-04-11T05:26:35.197Z,8.84
2023-04-11T05:29:37.905Z,8.84
2023-04-11T05:32:40.630Z,8.88
2023-04-11T05:35:43.462Z,8.93
2023-04-11T05:38:46.967Z,8.95
2023-04-11T05:41:50.255Z,8.95
2023-04-11T05:44:53.342Z,8.94
2023-04-11T05:47:56.786Z,8.91
2023-04-11T05:51:00.415Z,8.88
2023-04-11T05:54:03.421Z,8.89
2023-04-11T05:57:07.755Z,8.93
2023-04-11T06:00:16.570Z,8.98
2023-04-11T06:03:19.430Z,9.04
2023-04-11T06:06:23.547Z,9.07
2023-04-11T06:09:26.938Z,9.10
2023-04-11T06:12:29.654Z,9.12
2023-04-11T06:15:32.442Z,9.11
2023-04-11T06:18:35.135Z,9.10
2023-04-11T06:21:37.980Z,9.13
2023-04-11T06:24:41.324Z,9.18
2023-04-11T06:27:44.619Z,9.19
2023-04-11T06:30:47.242Z,9.23
2023-04-11T06:33:49.902Z,9.27
2023-04-11T06:36:52.726Z,9.26
2023-04-11T06:39:55.646Z,9.26
2023-04-11T06:43:00.350Z,9.28
2023-04-11T06:46:03.150Z,9.29
2023-04-11T06:49:08.661Z,9.28
2023-04-11T06:52:11.605Z,9.28
2023-04-11T06:55:15.739Z,9.36
2023-04-11T06:58:18.478Z,9.43
2023-04-11T07:01:25.597Z,9.50
2023-04-11T07:04:28.598Z,9.53
2023-04-11T07:07:31.467Z,9.54
2023-04-11T07:10:38.115Z,9.53
2023-04-11T07:13:40.985Z,9.51
2023-04-11T07:16:43.819Z,9.52
2023-04-11T07:19:54.250Z,9.55
2023-04-11T07:22:57.252Z,9.53
2023-04-11T07:25:59.909Z,9.50
2023-04-11T07:29:02.805Z,9.52
2023-04-11T07:32:10.326Z,9.52
2023-04-11T07:35:14.617Z,9.52
2023-04-11T07:38:27.239Z,9.51
2023-04-11T07:41:29.988Z,9.48
2023-04-11T07:44:33.007Z,9.49
2023-04-11T07:47:35.892Z,9.53
2023-04-11T07:50:38.527Z,9.55
2023-04-11T07:53:41.286Z,9.53
2023-04-11T07:56:44.018Z,9.52
2023-04-11T07:59:47.030Z,9.53
2023-04-11T08:02:50.285Z,9.51
2023-04-11T08:05:53.360Z,9.47
2023-04-11T08:08:56.380Z,9.48
2023-04-11T08:11:59.017Z,9.48
2023-04-11T08:15:02.336Z,9.49
2023-04-11T08:18:05.342Z,9.49
2023-04-11T08:21:10.882Z,9.44
2023-04-11T08:24:13.587Z,9.43
2023-04-11T08:27:16.227Z,9.40
2023-04-11T08:30:18.888Z,9.36
2023-04-11T08:33:25.005Z,9.26
2023-04-11T08:36:27.724Z,9.17
2023-04-11T08:39:30.439Z,9.15
2023-04-11T08:42:34.421Z,9.12
2023-04-11T08:45:37.409Z,9.03
2023-04-11T08:48:40.371Z,8.96
2023-04-11T08:51:44.857Z,8.97
2023-04-11T08:54:48.797Z,8.94
2023-04-11T08:57:51.605Z,8.90
2023-04-11T09:00:54.541Z,8.87
2023-04-11T09:03:59.491Z,8.79
2023-04-11T09:07:03.724Z,8.77
2023-04-11T09:10:21.811Z,8.73
2023-04-11T09:13:29.018Z,8.70
2023-04-11T09:16:31.882Z,8.60
2023-04-11T09:19:42.296Z,8.57
2023-04-11T09:22:45.374Z,8.45
2023-04-11T09:25:48.102Z,8.38
2023-04-11T09:28:53.879Z,8.39
2023-04-11T09:31:57.197Z,8.33
2023-04-11T09:35:18.810Z,8.28
2023-04-11T09:38:35.195Z,8.22
2023-04-11T09:41:37.830Z,8.12
2023-04-11T09:44:40.599Z,8.05
2023-04-11T09:47:44.987Z,7.94
2023-04-11T09:50:52.357Z,8.06
2023-04-11T09:53:56.414Z,8.10
2023-04-11T09:56:59.534Z,8.11
2023-04-11T10:00:21.803Z,8.22
2023-04-11T10:03:26.517Z,8.33
2023-04-11T10:06:52.417Z,8.43
2023-04-11T10:09:55.120Z,8.56
2023-04-11T10:12:58.031Z,8.67
2023-04-11T10:16:09.665Z,8.72
2023-04-11T10:19:19.100Z,8.74
2023-04-11T10:22:41.534Z,8.79
2023-04-11T10:25:56.019Z,8.82
2023-04-11T10:28:58.764Z,8.88
2023-04-11T10:32:13.443Z,8.90
2023-04-11T10:35:16.024Z,8.92
2023-04-11T10:38:37.212Z,8.94
2023-04-11T10:41:39.981Z,8.92
2023-04-11T10:44:42.734Z,8.95
2023-04-11T10:48:07.401Z,8.99
2023-04-11T10:51:26.929Z,8.98
2023-04-11T10:54:29.746Z,8.93
2023-04-11T10:58:07.362Z,8.94
2023-04-11T11:01:31.403Z,8.98
2023-04-11T11:04:47.596Z,9.04
2023-04-11T11:07:53.702Z,9.13
2023-04-11T11:11:07.456Z,9.19
2023-04-11T11:14:10.411Z,9.24
2023-04-11T11:17:14.511Z,9.27
2023-04-11T11:20:20.172Z,9.29
2023-04-11T11:23:22.923Z,9.30
2023-04-11T11:26:41.887Z,9.24
2023-04-11T11:29:44.738Z,9.23
2023-04-11T11:32:47.566Z,9.25
2023-04-11T11:35:55.825Z,9.29
2023-04-11T11:38:58.698Z,9.31
2023-04-11T11:42:02.102Z,9.33
2023-04-11T11:45:21.493Z,9.33
2023-04-11T11:48:25.067Z,9.38
2023-04-11T11:51:48.065Z,9.43
2023-04-11T11:54:54.387Z,9.48
2023-04-11T11:58:02.048Z,9.56
2023-04-11T12:01:05.217Z,9.74
2023-04-11T12:04:11.828Z,9.95
2023-04-11T12:07:14.835Z,10.11
2023-04-11T12:10:17.610Z,10.17
2023-04-11T12:13:27.196Z,10.14
2023-04-11T12:16:29.972Z,10.09
2023-04-11T12:19:32.753Z,10.02
2023-04-11T12:22:35.760Z,9.99
2023-04-11T12:25:38.572Z,9.93
2023-04-11T12:28:41.188Z,9.95
2023-04-11T12:31:45.759Z,10.04
2023-04-11T12:34:48.690Z,10.15
2023-04-11T12:37:51.642Z,10.23
2023-04-11T12:41:13.850Z,10.22
2023-04-11T12:44:17.800Z,10.21
2023-04-11T12:47:20.603Z,9.99
2023-04-11T12:50:23.843Z,8.86
2023-04-11T12:53:27.028Z,8.24
2023-04-11T12:56:30.113Z,7.87
2023-04-11T12:59:32.849Z,7.67
2023-04-11T13:02:42.732Z,7.51
2023-04-11T13:05:47.303Z,7.29
2023-04-11T13:08:50.756Z,7.25
2023-04-11T13:11:53.501Z,7.37
2023-04-11T13:14:57.011Z,7.57
2023-04-11T13:18:00.234Z,7.83
2023-04-11T13:21:03.019Z,8.09
2023-04-11T13:24:06.587Z,8.29
2023-04-11T13:27:09.277Z,8.48
2023-04-11T13:30:12.783Z,8.66
2023-04-11T13:33:15.643Z,8.81
2023-04-11T13:36:18.445Z,8.85
2023-04-11T13:39:21.175Z,9.03
2023-04-11T13:42:23.894Z,9.20
2023-04-11T13:45:26.582Z,9.30
2023-04-11T13:48:29.263Z,9.37
2023-04-11T13:51:33.427Z,9.43
2023-04-11T13:54:38.056Z,9.50
2023-04-11T13:57:46.707Z,9.45
2023-04-11T14:00:52.219Z,9.45
2023-04-11T14:03:55.196Z,9.33
2023-04-11T14:06:58.363Z,9.20
2023-04-11T14:10:01.085Z,9.11
2023-04-11T14:13:05.474Z,9.06
2023-04-11T14:16:09.504Z,9.06
2023-04-11T14:19:12.428Z,9.06
2023-04-11T14:22:15.857Z,9.15
2023-04-11T14:25:18.580Z,9.30
2023-04-11T14:28:21.444Z,9.44
2023-04-11T14:31:24.260Z,9.58
2023-04-11T14:34:28.154Z,9.71
2023-04-11T14:37:32.104Z,9.82
2023-04-11T14:40:34.795Z,9.86
2023-04-11T14:43:37.809Z,9.88
2023-04-11T14:46:40.895Z,9.86
2023-04-11T14:49:44.168Z,9.89
2023-04-11T14:52:48.349Z,9.90
2023-04-11T14:55:54.855Z,9.89
2023-04-11T14:58:57.585Z,9.88
2023-04-11T15:02:00.601Z,9.89
2023-04-11T15:05:09.812Z,9.88
2023-04-11T15:08:12.408Z,9.89
2023-04-11T15:11:15.018Z,9.88
2023-04-11T15:14:17.652Z,9.92
2023-04-11T15:17:20.572Z,10.01
2023-04-11T15:20:24.461Z,10.07
2023-04-11T15:23:27.494Z,10.17
2023-04-11T15:26:30.386Z,10.26
2023-04-11T15:29:33.324Z,10.28
2023-04-11T15:32:36.186Z,10.28
2023-04-11T15:35:42.504Z,10.27
2023-04-11T15:38:45.576Z,10.31
2023-04-11T15:41:48.319Z,10.37
2023-04-11T15:44:51.016Z,10.40
2023-04-11T15:47:53.831Z,10.39
2023-04-11T15:50:56.553Z,10.33
2023-04-11T15:53:59.328Z,10.09
2023-04-11T15:57:02.495Z,9.13
2023-04-11T16:00:09.484Z,8.20
2023-04-11T16:03:12.415Z,7.65
2023-04-11T16:06:15.656Z,7.41
2023-04-11T16:09:18.428Z,7.04
2023-04-11T16:12:21.246Z,6.88
2023-04-11T16:15:23.958Z,6.60
2023-04-11T16:18:26.698Z,6.49
2023-04-11T16:21:29.478Z,6.35
2023-04-11T16:24:32.225Z,6.46
2023-04-11T16:27:35.027Z,6.44
2023-04-11T16:30:37.706Z,6.50
2023-04-11T16:33:40.696Z,6.48
2023-04-11T16:36:43.381Z,6.49
2023-04-11T16:39:46.519Z,6.59
2023-04-11T16:42:49.207Z,6.67
2023-04-11T16:45:51.938Z,6.79
2023-04-11T16:48:55.121Z,6.89
2023-04-11T16:51:57.929Z,6.92
2023-04-11T16:55:00.958Z,6.99
2023-04-11T16:58:04.135Z,7.20
2023-04-11T17:01:07.035Z,7.34
2023-04-11T17:04:09.930Z,7.45
2023-04-11T17:07:13.191Z,7.52
2023-04-11T17:10:16.693Z,7.47
2023-04-11T17:13:19.615Z,7.57
2023-04-11T17:16:22.508Z,7.62
2023-04-11T17:19:25.910Z,7.72
2023-04-11T17:22:28.995Z,7.86
2023-04-11T17:25:32.026Z,7.93
2023-04-11T17:28:35.505Z,7.91
2023-04-11T17:31:38.595Z,7.88
2023-04-11T17:34:41.428Z,7.87
2023-04-11T17:37:44.748Z,7.87
2023-04-11T17:40:52.322Z,7.88
2023-04-11T17:43:57.047Z,7.86
2023-04-11T17:47:00.640Z,7.93
2023-04-11T17:50:04.967Z,7.96
2023-04-11T17:53:07.760Z,7.96
2023-04-11T17:56:10.473Z,7.96
2023-04-11T17:59:13.823Z,7.89
2023-04-11T18:02:17.332Z,7.79
2023-04-11T18:05:24.503Z,7.71
2023-04-11T18:08:46.717Z,7.64
2023-04-11T18:11:51.518Z,7.58
2023-04-11T18:14:56.889Z,7.54
2023-04-11T18:17:59.749Z,7.53
2023-04-11T18:21:06.471Z,7.53
2023-04-11T18:24:21.793Z,7.57
2023-04-11T18:27:24.694Z,7.60
2023-04-11T18:30:28.035Z,7.57
2023-04-11T18:33:30.816Z,7.55
2023-04-11T18:36:33.990Z,7.55
2023-04-11T18:39:38.340Z,7.55
2023-04-11T18:42:43.872Z,7.52
2023-04-11T18:45:49.467Z,7.46
2023-04-11T18:48:52.540Z,7.44
2023-04-11T18:51:55.253Z,7.41
2023-04-11T18:55:05.740Z,7.40
2023-04-11T18:58:09.919Z,7.41
2023-04-11T19:01:16.502Z,7.39
2023-04-11T19:04:21.004Z,7.36
2023-04-11T19:07:23.833Z,7.31
2023-04-11T19:10:26.612Z,7.28
2023-04-11T19:13:29.952Z,7.26
2023-04-11T19:16:33.769Z,7.27
2023-04-11T19:19:44.022Z,7.24
2023-04-11T19:22:46.823Z,7.20
2023-04-11T19:25:49.639Z,7.18
2023-04-11T19:28:52.620Z,7.17
2023-04-11T19:31:55.599Z,7.15
2023-04-11T19:34:58.781Z,7.11
2023-04-11T19:38:05.949Z,7.11
2023-04-11T19:41:17.390Z,7.05
2023-04-11T19:44:20.179Z,7.11
2023-04-11T19:47:23.705Z,7.09
2023-04-11T19:50:26.460Z,7.05
2023-04-11T19:53:29.487Z,7.00
2023-04-11T19:56:33.113Z,6.96
2023-04-11T19:59:35.796Z,6.92
2023-04-11T20:02:44.659Z,6.90
2023-04-11T20:05:47.969Z,6.87
2023-04-11T20:08:51.130Z,6.81
2023-04-11T20:11:53.770Z,6.76
2023-04-11T20:14:56.545Z,6.72
2023-04-11T20:17:59.761Z,6.70
2023-04-11T20:21:03.429Z,6.61
2023-04-11T20:24:06.310Z,6.56
2023-04-11T20:27:11.027Z,6.55
2023-04-11T20:30:15.622Z,6.54
2023-04-11T20:33:18.311Z,6.55
2023-04-11T20:36:21.241Z,6.55
2023-04-11T20:39:23.924Z,6.54
2023-04-11T20:42:27.959Z,6.52
2023-04-11T20:45:33.028Z,6.48
2023-04-11T20:48:36.081Z,6.43
2023-04-11T20:51:38.809Z,6.42
2023-04-11T20:54:41.548Z,6.43
2023-04-11T20:57:44.825Z,6.44
2023-04-11T21:00:47.952Z,6.47
2023-04-11T21:03:51.470Z,6.43
2023-04-11T21:06:54.319Z,6.41
2023-04-11T21:09:56.988Z,6.38
2023-04-11T21:12:59.653Z,6.33
2023-04-11T21:16:02.353Z,6.30
2023-04-11T21:19:05.046Z,6.23
2023-04-11T21:22:07.682Z,6.22
2023-04-11T21:25:10.613Z,6.21
2023-04-11T21:28:13.281Z,6.19
2023-04-11T21:31:16.149Z,6.17
2023-04-11T21:34:22.856Z,6.17
2023-04-11T21:37:25.740Z,6.18
2023-04-11T21:40:28.706Z,6.19
2023-04-11T21:43:31.327Z,6.19
2023-04-11T21:46:34.509Z,6.14
2023-04-11T21:49:37.283Z,6.09
2023-04-11T21:52:40.055Z,6.08
2023-04-11T21:55:46.879Z,6.09
2023-04-11T21:58:49.635Z,6.07
2023-04-11T22:01:52.581Z,6.07
2023-04-11T22:05:06.380Z,6.07
2023-04-11T22:08:12.709Z,6.07
2023-04-11T22:11:15.324Z,6.06
2023-04-11T22:14:18.236Z,6.08
2023-04-11T22:17:21.028Z,6.04
2023-04-11T22:20:23.669Z,5.96
2023-04-11T22:23:26.262Z,5.84
2023-04-11T22:26:33.990Z,5.75
2023-04-11T22:29:36.641Z,5.68
2023-04-11T22:32:39.225Z,5.64
2023-04-11T22:35:49.191Z,5.61
2023-04-11T22:38:51.866Z,5.58
2023-04-11T22:41:54.706Z,5.57
2023-04-11T22:44:57.286Z,5.52
2023-04-11T22:48:00.246Z,5.45
2023-04-11T22:51:04.236Z,5.42
2023-04-11T22:54:08.583Z,5.40
2023-04-11T22:57:11.117Z,5.37
2023-04-11T23:00:16.437Z,5.34
2023-04-11T23:03:19.780Z,5.28
2023-04-11T23:06:22.384Z,5.27
2023-04-11T23:09:25.324Z,5.26
2023-04-11T23:12:28.671Z,5.27
2023-04-11T23:15:31.904Z,5.27
2023-04-11T23:18:35.163Z,5.27
2023-04-11T23:21:38.042Z,5.26
2023-04-11T23:24:40.909Z,5.29
2023-04-11T23:27:44.536Z,5.30
2023-04-11T23:30:48.806Z,5.27
2023-04-11T23:33:51.373Z,5.27
2023-04-11T23:36:59.083Z,5.27
2023-04-11T23:40:10.830Z,5.27
2023-04-11T23:43:13.777Z,5.29
2023-04-11T23:46:19.248Z,5.25
2023-04-11T23:49:32.856Z,5.19
2023-04-11T23:52:35.684Z,5.19
2023-04-11T23:55:40.294Z,5.20
2023-04-11T23:58:42.879Z,5.19
